sensor_id;sensor_type;location;lat;lon;timestamp;P1;durP1;ratioP1;P2;durP2;ratioP2
46921;SDS011;44039;48.336;10.454;2022-07-23T00:00:38;157.55;;;151.43;;
46921;SDS011;44039;48.336;10.454;2022-07-23T00:03:25;156.18;;;149.85;;
46921;SDS011;44039;48.336;10.454;2022-07-23T00:06:13;151.80;;;145.63;;
46921;SDS011;44039;48.336;10.454;2022-07-23T00:09:00;152.93;;;146.23;;
46921;SDS011;44039;48.336;10.454;2022-07-23T00:11:48;148.48;;;141.88;;
46921;SDS011;44039;48.336;10.454;2022-07-23T00:14:35;148.63;;;142.85;;
46921;SDS011;44039;48.336;10.454;2022-07-23T00:17:22;142.52;;;136.73;;
46921;SDS011;44039;48.336;10.454;2022-07-23T00:20:09;145.57;;;139.85;;
46921;SDS011;44039;48.336;10.454;2022-07-23T00:22:56;143.57;;;137.90;;
46921;SDS011;44039;48.336;10.454;2022-07-23T00:25:43;141.50;;;135.88;;
46921;SDS011;44039;48.336;10.454;2022-07-23T00:28:31;144.20;;;138.30;;
46921;SDS011;44039;48.336;10.454;2022-07-23T00:31:18;144.95;;;139.07;;
46921;SDS011;44039;48.336;10.454;2022-07-23T00:34:06;143.77;;;137.93;;
46921;SDS011;44039;48.336;10.454;2022-07-23T00:36:52;145.50;;;139.30;;
46921;SDS011;44039;48.336;10.454;2022-07-23T00:39:40;146.45;;;140.48;;
46921;SDS011;44039;48.336;10.454;2022-07-23T00:42:27;143.65;;;137.60;;
46921;SDS011;44039;48.336;10.454;2022-07-23T00:45:14;142.43;;;136.73;;
46921;SDS011;44039;48.336;10.454;2022-07-23T00:48:01;139.88;;;134.48;;
46921;SDS011;44039;48.336;10.454;2022-07-23T00:50:49;137.20;;;131.70;;
46921;SDS011;44039;48.336;10.454;2022-07-23T00:53:36;139.43;;;133.43;;
46921;SDS011;44039;48.336;10.454;2022-07-23T00:56:23;135.52;;;130.13;;
46921;SDS011;44039;48.336;10.454;2022-07-23T00:59:10;137.23;;;131.55;;
46921;SDS011;44039;48.336;10.454;2022-07-23T01:01:58;135.68;;;130.35;;
46921;SDS011;44039;48.336;10.454;2022-07-23T01:04:44;130.48;;;125.28;;
46921;SDS011;44039;48.336;10.454;2022-07-23T01:07:32;128.18;;;122.97;;
46921;SDS011;44039;48.336;10.454;2022-07-23T01:10:19;125.93;;;120.45;;
46921;SDS011;44039;48.336;10.454;2022-07-23T01:13:18;130.88;;;125.53;;
46921;SDS011;44039;48.336;10.454;2022-07-23T01:16:06;132.77;;;127.22;;
46921;SDS011;44039;48.336;10.454;2022-07-23T01:18:56;132.77;;;126.35;;
46921;SDS011;44039;48.336;10.454;2022-07-23T01:21:45;127.30;;;122.10;;
46921;SDS011;44039;48.336;10.454;2022-07-23T01:24:34;127.22;;;121.97;;
46921;SDS011;44039;48.336;10.454;2022-07-23T01:27:21;128.40;;;123.43;;
46921;SDS011;44039;48.336;10.454;2022-07-23T01:30:09;126.75;;;121.35;;
46921;SDS011;44039;48.336;10.454;2022-07-23T01:32:56;124.95;;;119.70;;
46921;SDS011;44039;48.336;10.454;2022-07-23T01:35:43;123.78;;;118.68;;
46921;SDS011;44039;48.336;10.454;2022-07-23T01:38:30;136.32;;;128.68;;
46921;SDS011;44039;48.336;10.454;2022-07-23T01:41:17;126.45;;;121.15;;
46921;SDS011;44039;48.336;10.454;2022-07-23T01:44:05;126.55;;;121.25;;
46921;SDS011;44039;48.336;10.454;2022-07-23T01:46:52;123.38;;;118.35;;
46921;SDS011;44039;48.336;10.454;2022-07-23T01:49:39;124.68;;;119.57;;
46921;SDS011;44039;48.336;10.454;2022-07-23T01:52:26;123.55;;;118.35;;
46921;SDS011;44039;48.336;10.454;2022-07-23T01:55:13;125.53;;;120.35;;
46921;SDS011;44039;48.336;10.454;2022-07-23T01:58:04;123.22;;;118.32;;
46921;SDS011;44039;48.336;10.454;2022-07-23T02:00:52;120.25;;;115.55;;
46921;SDS011;44039;48.336;10.454;2022-07-23T02:03:40;125.22;;;119.97;;
46921;SDS011;44039;48.336;10.454;2022-07-23T02:06:26;124.57;;;119.53;;
46921;SDS011;44039;48.336;10.454;2022-07-23T02:09:14;123.88;;;118.47;;
46921;SDS011;44039;48.336;10.454;2022-07-23T02:12:01;122.65;;;117.15;;
46921;SDS011;44039;48.336;10.454;2022-07-23T02:14:49;122.25;;;117.20;;
46921;SDS011;44039;48.336;10.454;2022-07-23T02:17:36;121.68;;;116.68;;
46921;SDS011;44039;48.336;10.454;2022-07-23T02:20:24;123.95;;;118.43;;
46921;SDS011;44039;48.336;10.454;2022-07-23T02:23:11;125.32;;;119.65;;
46921;SDS011;44039;48.336;10.454;2022-07-23T02:25:58;124.20;;;118.78;;
46921;SDS011;44039;48.336;10.454;2022-07-23T02:28:45;120.63;;;115.63;;
46921;SDS011;44039;48.336;10.454;2022-07-23T02:31:33;123.05;;;117.65;;
46921;SDS011;44039;48.336;10.454;2022-07-23T02:34:21;122.13;;;116.72;;
46921;SDS011;44039;48.336;10.454;2022-07-23T02:37:08;120.50;;;115.40;;
46921;SDS011;44039;48.336;10.454;2022-07-23T02:39:55;121.63;;;116.72;;
46921;SDS011;44039;48.336;10.454;2022-07-23T02:42:42;120.88;;;115.93;;
46921;SDS011;44039;48.336;10.454;2022-07-23T02:45:29;122.22;;;117.30;;
46921;SDS011;44039;48.336;10.454;2022-07-23T02:48:16;125.68;;;120.57;;
46921;SDS011;44039;48.336;10.454;2022-07-23T02:51:04;125.18;;;119.90;;
46921;SDS011;44039;48.336;10.454;2022-07-23T02:53:55;125.22;;;120.07;;
46921;SDS011;44039;48.336;10.454;2022-07-23T02:56:43;123.13;;;118.15;;
46921;SDS011;44039;48.336;10.454;2022-07-23T02:59:30;122.68;;;117.78;;
46921;SDS011;44039;48.336;10.454;2022-07-23T03:02:17;122.38;;;117.65;;
46921;SDS011;44039;48.336;10.454;2022-07-23T03:05:04;123.25;;;118.30;;
46921;SDS011;44039;48.336;10.454;2022-07-23T03:07:51;122.78;;;117.75;;
46921;SDS011;44039;48.336;10.454;2022-07-23T03:10:38;122.85;;;117.75;;
46921;SDS011;44039;48.336;10.454;2022-07-23T03:13:25;118.88;;;114.07;;
46921;SDS011;44039;48.336;10.454;2022-07-23T03:16:12;119.47;;;114.38;;
46921;SDS011;44039;48.336;10.454;2022-07-23T03:19:00;126.97;;;120.80;;
46921;SDS011;44039;48.336;10.454;2022-07-23T03:21:52;116.85;;;112.10;;
46921;SDS011;44039;48.336;10.454;2022-07-23T03:24:38;118.82;;;113.95;;
46921;SDS011;44039;48.336;10.454;2022-07-23T03:27:41;120.35;;;115.38;;
46921;SDS011;44039;48.336;10.454;2022-07-23T03:30:27;120.07;;;115.40;;
46921;SDS011;44039;48.336;10.454;2022-07-23T03:33:15;123.28;;;117.88;;
46921;SDS011;44039;48.336;10.454;2022-07-23T03:36:04;120.40;;;115.53;;
46921;SDS011;44039;48.336;10.454;2022-07-23T03:38:55;129.98;;;122.70;;
46921;SDS011;44039;48.336;10.454;2022-07-23T03:41:42;121.43;;;116.32;;
46921;SDS011;44039;48.336;10.454;2022-07-23T03:44:29;119.82;;;115.18;;
46921;SDS011;44039;48.336;10.454;2022-07-23T03:47:16;124.60;;;119.57;;
46921;SDS011;44039;48.336;10.454;2022-07-23T03:50:04;125.45;;;120.07;;
46921;SDS011;44039;48.336;10.454;2022-07-23T03:52:51;126.80;;;121.57;;
46921;SDS011;44039;48.336;10.454;2022-07-23T03:55:38;128.80;;;122.10;;
46921;SDS011;44039;48.336;10.454;2022-07-23T03:58:25;122.35;;;117.40;;
46921;SDS011;44039;48.336;10.454;2022-07-23T04:01:12;124.32;;;118.93;;
46921;SDS011;44039;48.336;10.454;2022-07-23T04:04:00;121.63;;;116.65;;
46921;SDS011;44039;48.336;10.454;2022-07-23T04:06:47;124.15;;;119.15;;
46921;SDS011;44039;48.336;10.454;2022-07-23T04:09:34;123.20;;;118.22;;
46921;SDS011;44039;48.336;10.454;2022-07-23T04:12:21;126.05;;;120.97;;
46921;SDS011;44039;48.336;10.454;2022-07-23T04:15:09;124.45;;;119.55;;
46921;SDS011;44039;48.336;10.454;2022-07-23T04:17:56;126.00;;;120.40;;
46921;SDS011;44039;48.336;10.454;2022-07-23T04:20:43;126.18;;;121.07;;
46921;SDS011;44039;48.336;10.454;2022-07-23T04:23:31;125.90;;;120.90;;
46921;SDS011;44039;48.336;10.454;2022-07-23T04:26:18;125.00;;;119.82;;
46921;SDS011;44039;48.336;10.454;2022-07-23T04:29:05;130.35;;;124.13;;
46921;SDS011;44039;48.336;10.454;2022-07-23T04:31:52;127.25;;;121.80;;
46921;SDS011;44039;48.336;10.454;2022-07-23T04:34:39;124.53;;;119.38;;
46921;SDS011;44039;48.336;10.454;2022-07-23T04:37:26;125.65;;;120.45;;
46921;SDS011;44039;48.336;10.454;2022-07-23T04:40:14;125.18;;;119.85;;
46921;SDS011;44039;48.336;10.454;2022-07-23T04:43:01;125.28;;;119.78;;
46921;SDS011;44039;48.336;10.454;2022-07-23T04:45:48;122.32;;;117.28;;
46921;SDS011;44039;48.336;10.454;2022-07-23T04:48:36;125.40;;;120.03;;
46921;SDS011;44039;48.336;10.454;2022-07-23T04:51:23;123.53;;;118.32;;
46921;SDS011;44039;48.336;10.454;2022-07-23T04:54:10;124.25;;;119.05;;
46921;SDS011;44039;48.336;10.454;2022-07-23T04:56:57;124.35;;;119.22;;
46921;SDS011;44039;48.336;10.454;2022-07-23T04:59:44;131.50;;;124.75;;
46921;SDS011;44039;48.336;10.454;2022-07-23T05:02:31;130.55;;;125.25;;
46921;SDS011;44039;48.336;10.454;2022-07-23T05:05:18;130.23;;;124.78;;
46921;SDS011;44039;48.336;10.454;2022-07-23T05:08:05;127.30;;;121.80;;
46921;SDS011;44039;48.336;10.454;2022-07-23T05:10:53;127.68;;;122.07;;
46921;SDS011;44039;48.336;10.454;2022-07-23T05:13:40;130.10;;;124.25;;
46921;SDS011;44039;48.336;10.454;2022-07-23T05:16:27;130.13;;;123.95;;
46921;SDS011;44039;48.336;10.454;2022-07-23T05:19:14;128.85;;;123.32;;
46921;SDS011;44039;48.336;10.454;2022-07-23T05:22:02;129.73;;;122.10;;
46921;SDS011;44039;48.336;10.454;2022-07-23T05:24:49;126.22;;;120.38;;
46921;SDS011;44039;48.336;10.454;2022-07-23T05:27:36;120.43;;;115.55;;
46921;SDS011;44039;48.336;10.454;2022-07-23T05:30:23;126.10;;;121.00;;
46921;SDS011;44039;48.336;10.454;2022-07-23T05:33:10;128.60;;;122.68;;
46921;SDS011;44039;48.336;10.454;2022-07-23T05:36:00;126.35;;;120.75;;
46921;SDS011;44039;48.336;10.454;2022-07-23T05:38:49;125.95;;;120.80;;
46921;SDS011;44039;48.336;10.454;2022-07-23T05:41:36;120.25;;;115.45;;
46921;SDS011;44039;48.336;10.454;2022-07-23T05:44:24;124.80;;;119.57;;
46921;SDS011;44039;48.336;10.454;2022-07-23T05:47:11;127.00;;;121.60;;
46921;SDS011;44039;48.336;10.454;2022-07-23T05:49:58;123.97;;;118.80;;
46921;SDS011;44039;48.336;10.454;2022-07-23T05:52:49;127.03;;;121.53;;
46921;SDS011;44039;48.336;10.454;2022-07-23T05:55:36;125.35;;;120.18;;
46921;SDS011;44039;48.336;10.454;2022-07-23T05:58:23;122.88;;;117.57;;
46921;SDS011;44039;48.336;10.454;2022-07-23T06:01:10;124.97;;;119.72;;
46921;SDS011;44039;48.336;10.454;2022-07-23T06:03:58;119.00;;;114.05;;
46921;SDS011;44039;48.336;10.454;2022-07-23T06:06:45;122.72;;;117.60;;
46921;SDS011;44039;48.336;10.454;2022-07-23T06:09:32;125.47;;;120.18;;
46921;SDS011;44039;48.336;10.454;2022-07-23T06:12:19;124.15;;;119.05;;
46921;SDS011;44039;48.336;10.454;2022-07-23T06:15:06;125.43;;;120.15;;
46921;SDS011;44039;48.336;10.454;2022-07-23T06:17:57;130.60;;;124.57;;
46921;SDS011;44039;48.336;10.454;2022-07-23T06:20:44;124.78;;;119.70;;
46921;SDS011;44039;48.336;10.454;2022-07-23T06:23:36;127.50;;;120.47;;
46921;SDS011;44039;48.336;10.454;2022-07-23T06:26:23;126.47;;;120.85;;
46921;SDS011;44039;48.336;10.454;2022-07-23T06:29:10;127.88;;;122.47;;
46921;SDS011;44039;48.336;10.454;2022-07-23T06:31:57;126.78;;;121.32;;
46921;SDS011;44039;48.336;10.454;2022-07-23T06:34:45;129.18;;;123.75;;
46921;SDS011;44039;48.336;10.454;2022-07-23T06:37:34;132.07;;;126.47;;
46921;SDS011;44039;48.336;10.454;2022-07-23T06:40:21;136.60;;;130.70;;
46921;SDS011;44039;48.336;10.454;2022-07-23T06:43:08;136.20;;;129.85;;
46921;SDS011;44039;48.336;10.454;2022-07-23T06:45:56;132.57;;;127.00;;
46921;SDS011;44039;48.336;10.454;2022-07-23T06:48:43;132.20;;;126.53;;
46921;SDS011;44039;48.336;10.454;2022-07-23T06:51:30;129.85;;;124.28;;
46921;SDS011;44039;48.336;10.454;2022-07-23T06:54:17;133.82;;;128.00;;
46921;SDS011;44039;48.336;10.454;2022-07-23T06:57:04;130.63;;;125.13;;
46921;SDS011;44039;48.336;10.454;2022-07-23T06:59:52;134.52;;;128.82;;
46921;SDS011;44039;48.336;10.454;2022-07-23T07:02:41;133.10;;;127.10;;
46921;SDS011;44039;48.336;10.454;2022-07-23T07:05:28;135.38;;;129.55;;
46921;SDS011;44039;48.336;10.454;2022-07-23T07:08:16;131.38;;;125.50;;
46921;SDS011;44039;48.336;10.454;2022-07-23T07:11:03;133.68;;;128.07;;
46921;SDS011;44039;48.336;10.454;2022-07-23T07:13:50;135.82;;;130.02;;
46921;SDS011;44039;48.336;10.454;2022-07-23T07:16:36;139.45;;;133.27;;
46921;SDS011;44039;48.336;10.454;2022-07-23T07:19:23;140.40;;;134.27;;
46921;SDS011;44039;48.336;10.454;2022-07-23T07:22:10;141.20;;;135.50;;
46921;SDS011;44039;48.336;10.454;2022-07-23T07:24:57;140.35;;;134.57;;
46921;SDS011;44039;48.336;10.454;2022-07-23T07:27:44;140.13;;;134.32;;
46921;SDS011;44039;48.336;10.454;2022-07-23T07:30:31;136.35;;;130.68;;
46921;SDS011;44039;48.336;10.454;2022-07-23T07:33:23;140.32;;;134.32;;
46921;SDS011;44039;48.336;10.454;2022-07-23T07:36:10;136.65;;;130.98;;
46921;SDS011;44039;48.336;10.454;2022-07-23T07:39:04;142.75;;;136.18;;
46921;SDS011;44039;48.336;10.454;2022-07-23T07:41:52;153.25;;;146.98;;
46921;SDS011;44039;48.336;10.454;2022-07-23T07:44:39;170.65;;;163.98;;
46921;SDS011;44039;48.336;10.454;2022-07-23T07:47:26;190.05;;;182.73;;
46921;SDS011;44039;48.336;10.454;2022-07-23T07:50:13;191.32;;;183.93;;
46921;SDS011;44039;48.336;10.454;2022-07-23T07:53:00;209.27;;;201.70;;
46921;SDS011;44039;48.336;10.454;2022-07-23T07:55:47;217.63;;;209.75;;
46921;SDS011;44039;48.336;10.454;2022-07-23T07:58:37;228.90;;;220.90;;
46921;SDS011;44039;48.336;10.454;2022-07-23T08:01:25;224.63;;;216.65;;
46921;SDS011;44039;48.336;10.454;2022-07-23T08:04:12;222.95;;;215.05;;
46921;SDS011;44039;48.336;10.454;2022-07-23T08:06:59;219.52;;;211.80;;
46921;SDS011;44039;48.336;10.454;2022-07-23T08:09:46;220.60;;;212.50;;
46921;SDS011;44039;48.336;10.454;2022-07-23T08:12:40;216.73;;;209.25;;
46921;SDS011;44039;48.336;10.454;2022-07-23T08:15:34;224.10;;;216.15;;
46921;SDS011;44039;48.336;10.454;2022-07-23T08:18:21;228.63;;;220.32;;
46921;SDS011;44039;48.336;10.454;2022-07-23T08:21:08;224.98;;;217.18;;
46921;SDS011;44039;48.336;10.454;2022-07-23T08:23:55;223.65;;;215.93;;
46921;SDS011;44039;48.336;10.454;2022-07-23T08:26:42;223.45;;;215.55;;
46921;SDS011;44039;48.336;10.454;2022-07-23T08:29:29;229.15;;;221.25;;
46921;SDS011;44039;48.336;10.454;2022-07-23T08:32:16;227.15;;;219.30;;
46921;SDS011;44039;48.336;10.454;2022-07-23T08:35:30;220.38;;;212.48;;
46921;SDS011;44039;48.336;10.454;2022-07-23T08:38:20;221.95;;;213.93;;
46921;SDS011;44039;48.336;10.454;2022-07-23T08:41:08;224.65;;;216.90;;
46921;SDS011;44039;48.336;10.454;2022-07-23T08:43:56;217.68;;;210.10;;
46921;SDS011;44039;48.336;10.454;2022-07-23T08:46:44;222.50;;;214.43;;
46921;SDS011;44039;48.336;10.454;2022-07-23T08:49:32;229.30;;;221.30;;
46921;SDS011;44039;48.336;10.454;2022-07-23T08:52:20;231.00;;;222.90;;
46921;SDS011;44039;48.336;10.454;2022-07-23T08:55:13;241.25;;;233.00;;
46921;SDS011;44039;48.336;10.454;2022-07-23T08:58:02;237.43;;;229.23;;
46921;SDS011;44039;48.336;10.454;2022-07-23T09:00:50;235.10;;;226.82;;
46921;SDS011;44039;48.336;10.454;2022-07-23T09:03:37;232.65;;;224.45;;
46921;SDS011;44039;48.336;10.454;2022-07-23T09:06:27;234.50;;;226.45;;
46921;SDS011;44039;48.336;10.454;2022-07-23T09:09:18;234.63;;;226.32;;
46921;SDS011;44039;48.336;10.454;2022-07-23T09:12:06;224.75;;;217.00;;
46921;SDS011;44039;48.336;10.454;2022-07-23T09:14:55;221.95;;;213.82;;
46921;SDS011;44039;48.336;10.454;2022-07-23T09:17:49;226.73;;;218.63;;
46921;SDS011;44039;48.336;10.454;2022-07-23T09:20:36;227.98;;;219.90;;
46921;SDS011;44039;48.336;10.454;2022-07-23T09:23:36;222.40;;;214.25;;
46921;SDS011;44039;48.336;10.454;2022-07-23T09:26:26;228.60;;;220.48;;
46921;SDS011;44039;48.336;10.454;2022-07-23T09:29:19;224.05;;;216.25;;
46921;SDS011;44039;48.336;10.454;2022-07-23T09:32:13;212.90;;;205.52;;
46921;SDS011;44039;48.336;10.454;2022-07-23T09:35:00;213.82;;;206.27;;
46921;SDS011;44039;48.336;10.454;2022-07-23T09:38:00;215.15;;;207.15;;
46921;SDS011;44039;48.336;10.454;2022-07-23T09:41:04;223.50;;;215.57;;
46921;SDS011;44039;48.336;10.454;2022-07-23T09:43:56;227.57;;;219.48;;
46921;SDS011;44039;48.336;10.454;2022-07-23T09:46:47;229.85;;;221.90;;
46921;SDS011;44039;48.336;10.454;2022-07-23T09:49:36;231.13;;;223.43;;
46921;SDS011;44039;48.336;10.454;2022-07-23T09:52:30;232.82;;;224.57;;
46921;SDS011;44039;48.336;10.454;2022-07-23T09:55:21;231.60;;;223.32;;
46921;SDS011;44039;48.336;10.454;2022-07-23T09:58:25;230.65;;;222.43;;
46921;SDS011;44039;48.336;10.454;2022-07-23T10:01:14;220.35;;;212.45;;
46921;SDS011;44039;48.336;10.454;2022-07-23T10:04:01;213.88;;;206.20;;
46921;SDS011;44039;48.336;10.454;2022-07-23T10:06:51;219.20;;;211.32;;
46921;SDS011;44039;48.336;10.454;2022-07-23T10:09:43;228.23;;;220.18;;
46921;SDS011;44039;48.336;10.454;2022-07-23T10:12:34;229.30;;;221.00;;
46921;SDS011;44039;48.336;10.454;2022-07-23T10:15:21;229.23;;;221.10;;
46921;SDS011;44039;48.336;10.454;2022-07-23T10:18:09;223.07;;;215.10;;
46921;SDS011;44039;48.336;10.454;2022-07-23T10:20:59;218.18;;;210.02;;
46921;SDS011;44039;48.336;10.454;2022-07-23T10:27:10;217.80;;;209.48;;
46921;SDS011;44039;48.336;10.454;2022-07-23T10:40:08;223.88;;;215.88;;
46921;SDS011;44039;48.336;10.454;2022-07-23T10:42:58;228.70;;;220.25;;
46921;SDS011;44039;48.336;10.454;2022-07-23T10:45:48;225.85;;;217.93;;
46921;SDS011;44039;48.336;10.454;2022-07-23T10:48:36;238.15;;;229.10;;
46921;SDS011;44039;48.336;10.454;2022-07-23T10:51:23;244.30;;;235.98;;
46921;SDS011;44039;48.336;10.454;2022-07-23T10:54:20;235.55;;;227.05;;
46921;SDS011;44039;48.336;10.454;2022-07-23T10:57:09;232.77;;;224.43;;
46921;SDS011;44039;48.336;10.454;2022-07-23T11:02:50;240.30;;;231.85;;
46921;SDS011;44039;48.336;10.454;2022-07-23T11:05:43;245.73;;;237.27;;
46921;SDS011;44039;48.336;10.454;2022-07-23T11:08:31;244.07;;;235.07;;
46921;SDS011;44039;48.336;10.454;2022-07-23T11:11:18;242.23;;;233.73;;
46921;SDS011;44039;48.336;10.454;2022-07-23T11:14:05;250.57;;;241.85;;
46921;SDS011;44039;48.336;10.454;2022-07-23T11:16:52;249.10;;;240.48;;
46921;SDS011;44039;48.336;10.454;2022-07-23T11:22:58;247.27;;;238.55;;
46921;SDS011;44039;48.336;10.454;2022-07-23T11:25:46;246.32;;;237.63;;
46921;SDS011;44039;48.336;10.454;2022-07-23T11:28:33;242.48;;;234.00;;
46921;SDS011;44039;48.336;10.454;2022-07-23T11:31:20;249.93;;;240.95;;
46921;SDS011;44039;48.336;10.454;2022-07-23T11:40:23;254.45;;;245.65;;
46921;SDS011;44039;48.336;10.454;2022-07-23T11:43:11;256.65;;;247.55;;
46921;SDS011;44039;48.336;10.454;2022-07-23T11:46:00;242.80;;;234.25;;
46921;SDS011;44039;48.336;10.454;2022-07-23T11:48:47;233.20;;;225.05;;
46921;SDS011;44039;48.336;10.454;2022-07-23T11:52:08;229.82;;;221.63;;
46921;SDS011;44039;48.336;10.454;2022-07-23T11:55:00;224.35;;;216.32;;
46921;SDS011;44039;48.336;10.454;2022-07-23T11:57:50;247.10;;;237.05;;
46921;SDS011;44039;48.336;10.454;2022-07-23T12:00:40;243.27;;;234.77;;
46921;SDS011;44039;48.336;10.454;2022-07-23T12:03:28;247.48;;;239.02;;
46921;SDS011;44039;48.336;10.454;2022-07-23T12:06:15;243.90;;;235.60;;
46921;SDS011;44039;48.336;10.454;2022-07-23T12:09:02;243.98;;;234.88;;
46921;SDS011;44039;48.336;10.454;2022-07-23T12:11:57;235.30;;;227.10;;
46921;SDS011;44039;48.336;10.454;2022-07-23T12:14:51;236.23;;;227.88;;
46921;SDS011;44039;48.336;10.454;2022-07-23T12:17:42;232.32;;;224.15;;
46921;SDS011;44039;48.336;10.454;2022-07-23T12:20:46;235.10;;;226.80;;
46921;SDS011;44039;48.336;10.454;2022-07-23T12:23:36;248.77;;;240.32;;
46921;SDS011;44039;48.336;10.454;2022-07-23T12:26:24;236.18;;;227.88;;
46921;SDS011;44039;48.336;10.454;2022-07-23T12:29:11;234.02;;;225.35;;
46921;SDS011;44039;48.336;10.454;2022-07-23T12:31:58;236.77;;;228.50;;
46921;SDS011;44039;48.336;10.454;2022-07-23T12:34:47;234.77;;;226.43;;
46921;SDS011;44039;48.336;10.454;2022-07-23T12:37:36;230.27;;;222.32;;
46921;SDS011;44039;48.336;10.454;2022-07-23T12:43:24;218.98;;;210.82;;
46921;SDS011;44039;48.336;10.454;2022-07-23T12:46:14;222.52;;;214.43;;
46921;SDS011;44039;48.336;10.454;2022-07-23T12:49:03;230.48;;;221.30;;
46921;SDS011;44039;48.336;10.454;2022-07-23T12:51:50;227.40;;;219.35;;
46921;SDS011;44039;48.336;10.454;2022-07-23T12:54:37;230.32;;;222.10;;
46921;SDS011;44039;48.336;10.454;2022-07-23T12:57:45;231.63;;;223.65;;
46921;SDS011;44039;48.336;10.454;2022-07-23T13:01:21;231.65;;;223.52;;
46921;SDS011;44039;48.336;10.454;2022-07-23T13:04:07;253.52;;;244.80;;
46921;SDS011;44039;48.336;10.454;2022-07-23T13:07:00;249.80;;;241.18;;
46921;SDS011;44039;48.336;10.454;2022-07-23T13:09:50;236.35;;;228.07;;
46921;SDS011;44039;48.336;10.454;2022-07-23T13:12:38;230.50;;;222.30;;
46921;SDS011;44039;48.336;10.454;2022-07-23T13:15:25;229.02;;;220.93;;
46921;SDS011;44039;48.336;10.454;2022-07-23T13:18:12;216.63;;;208.70;;
46921;SDS011;44039;48.336;10.454;2022-07-23T13:21:00;204.07;;;196.45;;
46921;SDS011;44039;48.336;10.454;2022-07-23T13:23:48;197.70;;;190.23;;
46921;SDS011;44039;48.336;10.454;2022-07-23T13:26:35;187.18;;;180.48;;
46921;SDS011;44039;48.336;10.454;2022-07-23T13:29:23;195.20;;;188.00;;
46921;SDS011;44039;48.336;10.454;2022-07-23T13:32:12;203.05;;;195.60;;
46921;SDS011;44039;48.336;10.454;2022-07-23T13:34:59;219.30;;;211.38;;
46921;SDS011;44039;48.336;10.454;2022-07-23T13:37:47;223.75;;;215.90;;
46921;SDS011;44039;48.336;10.454;2022-07-23T13:40:36;228.50;;;220.60;;
46921;SDS011;44039;48.336;10.454;2022-07-23T13:43:25;238.30;;;230.00;;
46921;SDS011;44039;48.336;10.454;2022-07-23T13:46:18;230.55;;;222.55;;
46921;SDS011;44039;48.336;10.454;2022-07-23T13:49:06;239.88;;;231.30;;
46921;SDS011;44039;48.336;10.454;2022-07-23T13:51:55;234.75;;;226.60;;
46921;SDS011;44039;48.336;10.454;2022-07-23T13:54:44;227.30;;;219.65;;
46921;SDS011;44039;48.336;10.454;2022-07-23T13:57:31;233.52;;;225.45;;
46921;SDS011;44039;48.336;10.454;2022-07-23T14:00:19;239.52;;;230.95;;
46921;SDS011;44039;48.336;10.454;2022-07-23T14:03:26;230.45;;;222.35;;
46921;SDS011;44039;48.336;10.454;2022-07-23T14:06:13;240.05;;;231.85;;
46921;SDS011;44039;48.336;10.454;2022-07-23T14:09:02;255.25;;;245.68;;
46921;SDS011;44039;48.336;10.454;2022-07-23T14:11:50;243.13;;;234.63;;
46921;SDS011;44039;48.336;10.454;2022-07-23T14:14:38;243.18;;;234.63;;
46921;SDS011;44039;48.336;10.454;2022-07-23T14:17:25;243.70;;;235.23;;
46921;SDS011;44039;48.336;10.454;2022-07-23T14:20:15;240.80;;;232.48;;
46921;SDS011;44039;48.336;10.454;2022-07-23T14:23:03;239.85;;;231.38;;
46921;SDS011;44039;48.336;10.454;2022-07-23T14:25:51;226.98;;;218.93;;
46921;SDS011;44039;48.336;10.454;2022-07-23T14:28:39;227.73;;;219.18;;
46921;SDS011;44039;48.336;10.454;2022-07-23T14:31:27;213.65;;;205.93;;
46921;SDS011;44039;48.336;10.454;2022-07-23T14:34:15;200.70;;;193.10;;
46921;SDS011;44039;48.336;10.454;2022-07-23T14:37:02;197.85;;;190.45;;
46921;SDS011;44039;48.336;10.454;2022-07-23T14:39:50;198.13;;;190.55;;
46921;SDS011;44039;48.336;10.454;2022-07-23T14:42:37;195.20;;;187.75;;
46921;SDS011;44039;48.336;10.454;2022-07-23T14:45:25;188.93;;;181.68;;
46921;SDS011;44039;48.336;10.454;2022-07-23T14:48:12;190.48;;;183.38;;
46921;SDS011;44039;48.336;10.454;2022-07-23T14:50:59;189.93;;;182.80;;
46921;SDS011;44039;48.336;10.454;2022-07-23T14:53:46;190.57;;;183.18;;
46921;SDS011;44039;48.336;10.454;2022-07-23T14:56:33;187.18;;;179.88;;
46921;SDS011;44039;48.336;10.454;2022-07-23T14:59:22;188.05;;;180.75;;
46921;SDS011;44039;48.336;10.454;2022-07-23T15:02:10;188.82;;;181.50;;
46921;SDS011;44039;48.336;10.454;2022-07-23T15:04:59;188.18;;;180.73;;
46921;SDS011;44039;48.336;10.454;2022-07-23T15:07:48;184.45;;;177.43;;
46921;SDS011;44039;48.336;10.454;2022-07-23T15:10:35;177.43;;;170.70;;
46921;SDS011;44039;48.336;10.454;2022-07-23T15:13:24;184.55;;;177.45;;
46921;SDS011;44039;48.336;10.454;2022-07-23T15:16:14;182.18;;;175.38;;
46921;SDS011;44039;48.336;10.454;2022-07-23T15:19:02;197.70;;;189.35;;
46921;SDS011;44039;48.336;10.454;2022-07-23T15:21:51;193.02;;;185.52;;
46921;SDS011;44039;48.336;10.454;2022-07-23T15:24:38;200.73;;;193.35;;
46921;SDS011;44039;48.336;10.454;2022-07-23T15:27:25;206.48;;;198.98;;
46921;SDS011;44039;48.336;10.454;2022-07-23T15:30:16;208.95;;;201.35;;
46921;SDS011;44039;48.336;10.454;2022-07-23T15:33:04;206.50;;;199.13;;
46921;SDS011;44039;48.336;10.454;2022-07-23T15:35:52;207.60;;;199.80;;
46921;SDS011;44039;48.336;10.454;2022-07-23T15:38:41;206.05;;;198.68;;
46921;SDS011;44039;48.336;10.454;2022-07-23T15:41:29;203.77;;;196.43;;
46921;SDS011;44039;48.336;10.454;2022-07-23T15:44:16;209.15;;;201.35;;
46921;SDS011;44039;48.336;10.454;2022-07-23T15:47:15;203.13;;;195.45;;
46921;SDS011;44039;48.336;10.454;2022-07-23T15:50:04;202.25;;;194.80;;
46921;SDS011;44039;48.336;10.454;2022-07-23T15:52:52;204.57;;;196.82;;
46921;SDS011;44039;48.336;10.454;2022-07-23T15:55:40;202.77;;;195.18;;
46921;SDS011;44039;48.336;10.454;2022-07-23T15:58:28;201.57;;;194.27;;
46921;SDS011;44039;48.336;10.454;2022-07-23T16:01:16;199.25;;;191.55;;
46921;SDS011;44039;48.336;10.454;2022-07-23T16:04:04;199.30;;;192.10;;
46921;SDS011;44039;48.336;10.454;2022-07-23T16:06:51;198.85;;;191.48;;
46921;SDS011;44039;48.336;10.454;2022-07-23T16:09:39;199.73;;;192.02;;
46921;SDS011;44039;48.336;10.454;2022-07-23T16:12:26;195.98;;;188.85;;